createdAt,value
2022-07-29T00:02:27.013Z,1.10
2022-07-29T00:04:53.828Z,1.90
2022-07-29T00:07:20.881Z,1.10
2022-07-29T00:09:51.881Z,1.70
2022-07-29T00:12:26.339Z,1.33
2022-07-29T00:14:57.636Z,1.70
2022-07-29T00:17:25.684Z,1.60
2022-07-29T00:19:52.636Z,1.57
2022-07-29T00:22:19.955Z,1.10
2022-07-29T00:24:49.444Z,1.73
2022-07-29T00:27:15.973Z,1.47
2022-07-29T00:29:42.668Z,1.70
2022-07-29T00:32:09.240Z,2.57
2022-07-29T00:34:54.981Z,1.23
2022-07-29T00:37:21.881Z,1.17
2022-07-29T00:39:48.655Z,1.60
2022-07-29T00:42:15.223Z,1.30
2022-07-29T00:44:42.544Z,1.37
2022-07-29T00:47:11.334Z,1.27
2022-07-29T00:49:40.277Z,1.30
2022-07-29T00:52:07.981Z,1.40
2022-07-29T00:54:35.255Z,1.47
2022-07-29T00:57:08.514Z,1.37
2022-07-29T00:59:35.644Z,1.20
2022-07-29T01:02:03.935Z,1.33
2022-07-29T01:04:32.191Z,2.00
2022-07-29T01:06:59.716Z,1.40
2022-07-29T01:09:42.087Z,1.50
2022-07-29T01:12:17.230Z,1.20
2022-07-29T01:14:44.517Z,1.10
2022-07-29T01:17:14.986Z,1.40
2022-07-29T01:19:59.012Z,1.50
2022-07-29T01:22:38.241Z,1.23
2022-07-29T01:25:40.498Z,1.30
2022-07-29T01:28:41.195Z,1.33
2022-07-29T01:31:11.914Z,1.43
2022-07-29T01:33:53.568Z,1.47
2022-07-29T01:36:44.331Z,1.70
2022-07-29T01:39:26.878Z,1.50
2022-07-29T01:42:10.280Z,1.30
2022-07-29T01:44:46.497Z,1.40
2022-07-29T01:47:18.431Z,1.07
2022-07-29T01:49:51.921Z,1.77
2022-07-29T01:52:32.050Z,1.33
2022-07-29T01:55:02.946Z,1.90
2022-07-29T01:57:32.922Z,1.60
2022-07-29T02:00:01.713Z,1.33
2022-07-29T02:02:41.207Z,1.43
2022-07-29T02:05:11.390Z,1.27
2022-07-29T02:07:41.245Z,1.73
2022-07-29T02:10:10.194Z,1.30
2022-07-29T02:12:39.962Z,1.20
2022-07-29T02:15:08.305Z,1.83
2022-07-29T02:17:55.915Z,1.30
2022-07-29T02:20:25.869Z,1.50
2022-07-29T02:22:54.118Z,1.80
2022-07-29T02:25:23.278Z,1.90
2022-07-29T02:27:53.418Z,1.50
2022-07-29T02:30:23.053Z,1.47
2022-07-29T02:32:51.438Z,1.63
2022-07-29T02:35:20.601Z,2.13
2022-07-29T02:38:07.499Z,2.30
2022-07-29T02:40:36.931Z,1.87
2022-07-29T02:43:06.340Z,1.43
2022-07-29T02:45:35.322Z,1.67
2022-07-29T02:48:07.681Z,1.30
2022-07-29T02:50:38.051Z,2.00
2022-07-29T02:53:33.316Z,1.60
2022-07-29T02:56:02.838Z,1.60
2022-07-29T02:58:41.432Z,1.57
2022-07-29T03:01:21.002Z,1.67
2022-07-29T03:03:50.258Z,2.60
2022-07-29T03:06:37.477Z,1.93
2022-07-29T03:09:12.587Z,1.67
2022-07-29T03:11:48.011Z,1.67
2022-07-29T03:14:18.721Z,1.40
2022-07-29T03:16:46.067Z,2.77
2022-07-29T03:19:13.283Z,2.07
2022-07-29T03:21:40.423Z,2.00
2022-07-29T03:24:10.484Z,1.77
2022-07-29T03:26:37.879Z,1.73
2022-07-29T03:29:04.504Z,1.60
2022-07-29T03:31:32.053Z,1.70
2022-07-29T03:34:00.267Z,1.77
2022-07-29T03:36:27.156Z,1.30
2022-07-29T03:38:54.244Z,1.90
2022-07-29T03:41:23.656Z,2.00
2022-07-29T03:43:51.453Z,1.83
2022-07-29T03:46:20.146Z,2.20
2022-07-29T03:48:51.564Z,2.23
2022-07-29T03:51:18.678Z,1.77
2022-07-29T03:54:00.408Z,1.70
2022-07-29T03:56:30.035Z,1.90
2022-07-29T03:58:57.001Z,1.90
2022-07-29T04:01:24.825Z,1.40
2022-07-29T04:03:52.422Z,2.10
2022-07-29T04:06:19.021Z,2.77
2022-07-29T04:08:45.631Z,1.90
2022-07-29T04:11:12.383Z,2.00
2022-07-29T04:13:39.334Z,2.33
2022-07-29T04:16:06.034Z,1.80
2022-07-29T04:18:33.130Z,1.93
2022-07-29T04:21:01.685Z,2.00
2022-07-29T04:23:33.349Z,1.80
2022-07-29T04:26:01.287Z,1.57
2022-07-29T04:28:27.893Z,2.30
2022-07-29T04:30:54.973Z,2.60
2022-07-29T04:33:21.534Z,1.70
2022-07-29T04:35:52.547Z,2.00
2022-07-29T04:38:21.949Z,2.00
2022-07-29T04:40:49.798Z,2.30
2022-07-29T04:43:20.565Z,2.37
2022-07-29T04:45:50.012Z,2.10
2022-07-29T04:48:17.663Z,2.10
2022-07-29T04:50:45.317Z,2.47
2022-07-29T04:53:12.017Z,2.20
2022-07-29T04:55:38.984Z,2.23
2022-07-29T04:58:05.797Z,2.60
2022-07-29T05:00:33.529Z,1.80
2022-07-29T05:03:00.625Z,1.90
2022-07-29T05:05:27.303Z,2.07
2022-07-29T05:07:54.093Z,2.20
2022-07-29T05:10:20.828Z,1.53
2022-07-29T05:12:47.381Z,2.40
2022-07-29T05:15:14.477Z,1.93
2022-07-29T05:17:41.006Z,2.30
2022-07-29T05:20:09.022Z,1.90
2022-07-29T05:22:35.804Z,2.33
2022-07-29T05:25:08.506Z,2.30
2022-07-29T05:27:36.746Z,2.20
2022-07-29T05:30:03.872Z,2.20
2022-07-29T05:32:30.422Z,2.60
2022-07-29T05:34:56.950Z,2.20
2022-07-29T05:37:23.570Z,2.13
2022-07-29T05:39:56.986Z,2.43
2022-07-29T05:42:25.839Z,2.07
2022-07-29T05:44:54.124Z,2.30
2022-07-29T05:47:20.669Z,2.60
2022-07-29T05:49:47.284Z,2.50
2022-07-29T05:52:14.488Z,2.43
2022-07-29T05:54:41.894Z,2.00
2022-07-29T05:57:08.572Z,1.77
2022-07-29T05:59:38.863Z,2.77
2022-07-29T06:02:06.075Z,2.30
2022-07-29T06:04:34.408Z,2.27
2022-07-29T06:07:01.035Z,2.37
2022-07-29T06:09:29.170Z,1.97
2022-07-29T06:11:56.250Z,2.13
2022-07-29T06:14:22.797Z,2.20
2022-07-29T06:16:49.487Z,2.00
2022-07-29T06:19:16.726Z,2.20
2022-07-29T06:21:44.449Z,2.07
2022-07-29T06:24:15.851Z,2.30
2022-07-29T06:26:43.194Z,2.10
2022-07-29T06:29:11.580Z,2.03
2022-07-29T06:31:38.702Z,2.20
2022-07-29T06:34:05.551Z,2.60
2022-07-29T06:36:35.599Z,2.57
2022-07-29T06:39:08.075Z,2.67
2022-07-29T06:41:35.370Z,2.77
2022-07-29T06:44:10.112Z,2.03
2022-07-29T06:46:37.372Z,2.00
2022-07-29T06:49:04.079Z,2.40
2022-07-29T06:51:30.680Z,2.47
2022-07-29T06:54:02.412Z,2.40
2022-07-29T06:56:39.608Z,2.10
2022-07-29T06:59:10.748Z,2.00
2022-07-29T07:01:42.106Z,2.07
2022-07-29T07:04:09.741Z,2.40
2022-07-29T07:06:37.198Z,1.90
2022-07-29T07:09:04.289Z,2.80
2022-07-29T07:11:30.874Z,2.23
2022-07-29T07:14:02.464Z,1.93
2022-07-29T07:16:30.632Z,2.50
2022-07-29T07:18:57.261Z,1.97
2022-07-29T07:21:24.860Z,2.47
2022-07-29T07:23:51.759Z,2.23
2022-07-29T07:26:18.509Z,1.80
2022-07-29T07:28:45.087Z,2.73
2022-07-29T07:31:13.103Z,1.83
2022-07-29T07:33:40.975Z,2.27
2022-07-29T07:36:07.570Z,2.00
2022-07-29T07:38:34.123Z,2.20
2022-07-29T07:41:01.251Z,2.50
2022-07-29T07:43:27.857Z,2.40
2022-07-29T07:45:54.452Z,2.20
2022-07-29T07:48:21.126Z,2.30
2022-07-29T07:50:47.789Z,2.60
2022-07-29T07:53:14.803Z,1.77
2022-07-29T07:58:29.483Z,2.27
2022-07-29T08:00:56.124Z,2.63
2022-07-29T08:03:22.671Z,1.97
2022-07-29T08:05:51.501Z,1.70
2022-07-29T08:08:18.875Z,1.80
2022-07-29T08:10:54.775Z,1.73
2022-07-29T08:13:22.954Z,2.60
2022-07-29T08:15:58.483Z,1.50
2022-07-29T08:18:26.204Z,1.83
2022-07-29T08:20:53.624Z,1.87
2022-07-29T08:23:20.568Z,2.53
2022-07-29T08:25:47.227Z,2.00
2022-07-29T08:28:18.314Z,2.40
2022-07-29T08:30:45.008Z,1.93
2022-07-29T08:33:11.646Z,1.90
2022-07-29T08:35:39.620Z,1.70
2022-07-29T08:38:06.245Z,1.83
2022-07-29T08:40:33.442Z,2.00
2022-07-29T08:43:06.528Z,1.57
2022-07-29T08:45:47.444Z,1.83
2022-07-29T08:48:23.609Z,1.87
2022-07-29T08:50:54.234Z,2.00
2022-07-29T08:53:22.619Z,1.60
2022-07-29T08:55:50.866Z,2.10
2022-07-29T08:58:18.444Z,1.50
2022-07-29T09:00:55.880Z,2.00
2022-07-29T09:03:28.223Z,2.20
2022-07-29T09:05:55.303Z,2.73
2022-07-29T09:08:22.681Z,2.10
2022-07-29T09:10:50.146Z,2.10
2022-07-29T09:13:16.705Z,1.80
2022-07-29T09:15:43.295Z,2.53
2022-07-29T09:18:20.319Z,2.13
2022-07-29T09:21:15.233Z,1.67
2022-07-29T09:23:42.624Z,2.33
2022-07-29T09:26:09.145Z,2.20
2022-07-29T09:28:42.671Z,1.70
2022-07-29T09:31:09.498Z,2.23
2022-07-29T09:33:36.639Z,2.13
2022-07-29T09:36:08.503Z,2.43
2022-07-29T09:38:37.539Z,1.60
2022-07-29T09:41:06.943Z,1.73
2022-07-29T09:43:34.307Z,1.60
2022-07-29T09:46:14.458Z,1.73
2022-07-29T09:48:41.306Z,1.80
2022-07-29T09:51:25.426Z,1.93
2022-07-29T09:53:56.698Z,2.07
2022-07-29T09:56:42.430Z,2.00
2022-07-29T09:59:12.045Z,1.63
2022-07-29T10:01:38.561Z,1.80
2022-07-29T10:04:05.605Z,1.97
2022-07-29T10:06:32.392Z,1.80
2022-07-29T10:09:12.176Z,1.63
2022-07-29T10:11:49.442Z,2.67
2022-07-29T10:14:17.015Z,1.77
2022-07-29T10:16:44.207Z,1.77
2022-07-29T10:19:11.148Z,1.60
2022-07-29T10:21:40.606Z,1.50
2022-07-29T10:24:15.057Z,2.00
2022-07-29T10:26:42.903Z,1.53
2022-07-29T10:29:09.689Z,1.77
2022-07-29T10:31:51.044Z,1.60
2022-07-29T10:34:32.225Z,1.53
2022-07-29T10:37:45.880Z,1.70
2022-07-29T10:40:41.477Z,2.00
2022-07-29T10:43:23.734Z,1.90
2022-07-29T10:45:58.166Z,1.70
2022-07-29T10:48:26.311Z,1.70
2022-07-29T10:51:04.509Z,1.50
2022-07-29T10:53:53.981Z,1.70
2022-07-29T10:56:30.605Z,2.00
2022-07-29T10:59:18.886Z,1.70
2022-07-29T11:01:52.706Z,1.83
2022-07-29T11:04:45.237Z,1.80
2022-07-29T11:07:13.141Z,2.30
2022-07-29T11:09:41.863Z,1.70
2022-07-29T11:12:38.722Z,1.90
2022-07-29T11:15:09.026Z,1.40
2022-07-29T11:17:59.429Z,1.93
2022-07-29T11:20:42.620Z,2.57
2022-07-29T11:23:40.234Z,1.73
2022-07-29T11:26:21.039Z,1.40
2022-07-29T11:29:17.570Z,1.90
2022-07-29T11:31:46.777Z,1.70
2022-07-29T11:34:33.353Z,1.53
2022-07-29T11:37:10.529Z,1.50
2022-07-29T11:39:39.687Z,1.93
2022-07-29T11:42:28.204Z,1.43
2022-07-29T11:45:44.231Z,1.60
2022-07-29T11:48:05.253Z,2.30
2022-07-29T11:50:45.759Z,1.63
2022-07-29T11:53:16.225Z,1.60
2022-07-29T11:55:51.902Z,1.43
2022-07-29T11:58:26.056Z,1.67
2022-07-29T12:00:55.256Z,1.60
2022-07-29T12:03:33.438Z,1.67
2022-07-29T12:06:02.892Z,1.50
2022-07-29T12:08:30.601Z,1.63
2022-07-29T12:10:57.179Z,1.50
2022-07-29T12:13:37.795Z,2.20
2022-07-29T12:16:05.053Z,1.67
2022-07-29T12:18:32.507Z,1.50
2022-07-29T12:21:04.605Z,1.77
2022-07-29T12:23:34.694Z,1.90
2022-07-29T12:26:05.127Z,1.30
2022-07-29T12:28:40.819Z,1.60
2022-07-29T12:31:14.939Z,1.20
2022-07-29T12:34:02.471Z,1.43
2022-07-29T12:36:29.117Z,1.80
2022-07-29T12:38:55.714Z,1.40
2022-07-29T12:41:23.111Z,1.33
2022-07-29T12:43:56.377Z,1.70
2022-07-29T12:46:22.995Z,1.77
2022-07-29T12:48:57.526Z,1.57
2022-07-29T12:51:32.682Z,1.90
2022-07-29T12:54:05.653Z,1.50
2022-07-29T12:56:47.580Z,1.90
2022-07-29T12:59:20.254Z,1.87
2022-07-29T13:01:52.007Z,1.47
2022-07-29T13:04:32.940Z,1.87
2022-07-29T13:07:10.513Z,1.73
2022-07-29T13:09:40.529Z,2.03
2022-07-29T13:12:12.109Z,1.90
2022-07-29T13:14:47.461Z,2.30
2022-07-29T13:17:21.614Z,1.90
2022-07-29T13:19:53.091Z,2.23
2022-07-29T13:22:22.162Z,1.83
2022-07-29T13:25:00.181Z,2.77
2022-07-29T13:27:33.058Z,2.60
2022-07-29T13:30:01.938Z,1.60
2022-07-29T13:32:30.751Z,1.67
2022-07-29T13:34:58.946Z,1.80
2022-07-29T13:37:27.224Z,2.10
2022-07-29T13:39:55.000Z,1.80
2022-07-29T13:42:21.741Z,1.57
2022-07-29T13:44:49.922Z,1.93
2022-07-29T13:47:17.383Z,3.00
2022-07-29T13:49:43.998Z,2.70
2022-07-29T13:52:10.621Z,2.43
2022-07-29T13:54:41.925Z,2.27
2022-07-29T13:57:11.542Z,2.37
2022-07-29T13:59:38.709Z,2.00
2022-07-29T14:02:05.928Z,2.17
2022-07-29T14:04:33.334Z,2.03
2022-07-29T14:07:00.172Z,1.60
2022-07-29T14:09:30.837Z,2.20
2022-07-29T14:12:08.166Z,2.80
2022-07-29T14:14:36.425Z,2.53
2022-07-29T14:17:04.294Z,2.87
2022-07-29T14:19:32.903Z,2.43
2022-07-29T14:22:00.151Z,2.20
2022-07-29T14:24:27.377Z,2.87
2022-07-29T14:26:53.959Z,2.97
2022-07-29T14:29:20.654Z,1.90
2022-07-29T14:31:47.748Z,2.27
2022-07-29T14:34:16.315Z,2.33
2022-07-29T14:36:43.051Z,2.60
2022-07-29T14:39:09.743Z,2.20
2022-07-29T14:41:36.546Z,2.10
2022-07-29T14:44:03.291Z,2.27
2022-07-29T14:46:29.902Z,2.57
2022-07-29T14:48:56.834Z,2.57
2022-07-29T14:51:23.944Z,1.92
2022-07-29T14:53:58.908Z,2.30
2022-07-29T14:56:46.791Z,2.00
2022-07-29T14:59:12.118Z,2.37
2022-07-29T15:01:39.149Z,2.40
2022-07-29T15:04:06.046Z,2.70
2022-07-29T15:06:32.593Z,2.17
2022-07-29T15:08:59.125Z,2.30
2022-07-29T15:11:26.455Z,2.13
2022-07-29T15:13:53.042Z,2.53
2022-07-29T15:16:20.180Z,2.40
2022-07-29T15:18:46.772Z,2.50
2022-07-29T15:21:13.382Z,3.30
2022-07-29T15:23:40.107Z,2.30
2022-07-29T15:26:06.662Z,3.43
2022-07-29T15:28:33.194Z,2.80
2022-07-29T15:31:00.229Z,2.30
2022-07-29T15:33:27.229Z,3.13
2022-07-29T15:35:53.794Z,2.87
2022-07-29T15:38:20.400Z,2.60
2022-07-29T15:40:55.297Z,3.07
2022-07-29T15:43:21.854Z,2.50
2022-07-29T15:46:07.128Z,3.00
2022-07-29T15:48:33.786Z,2.97
2022-07-29T15:51:00.966Z,2.70
2022-07-29T15:53:27.569Z,2.37
2022-07-29T15:55:54.131Z,2.17
2022-07-29T15:58:20.700Z,2.70
2022-07-29T16:00:47.827Z,3.60
2022-07-29T16:03:14.940Z,3.20
2022-07-29T16:05:42.371Z,2.70
2022-07-29T16:08:09.278Z,2.57
2022-07-29T16:10:36.473Z,2.67
2022-07-29T16:13:03.071Z,2.93
2022-07-29T16:15:29.626Z,2.87
2022-07-29T16:17:56.222Z,2.83
2022-07-29T16:20:23.445Z,3.30
2022-07-29T16:22:49.977Z,2.43
2022-07-29T16:25:18.406Z,2.90
2022-07-29T16:27:44.976Z,3.10
2022-07-29T16:30:11.783Z,2.67
2022-07-29T16:32:39.718Z,2.70
2022-07-29T16:35:07.530Z,2.90
2022-07-29T16:37:36.744Z,2.40
2022-07-29T16:40:05.036Z,3.03
2022-07-29T16:42:46.065Z,2.80
2022-07-29T16:45:14.054Z,3.10
2022-07-29T16:47:40.639Z,2.87
2022-07-29T16:50:07.856Z,2.50
2022-07-29T16:52:34.538Z,2.17
2022-07-29T16:55:01.066Z,2.23
2022-07-29T16:57:27.864Z,2.20
2022-07-29T16:59:54.415Z,2.37
2022-07-29T17:02:21.267Z,2.50
2022-07-29T17:04:48.352Z,2.30
2022-07-29T17:07:15.948Z,2.57
2022-07-29T17:09:42.504Z,2.43
2022-07-29T17:12:09.368Z,2.50
2022-07-29T17:14:35.884Z,2.73
2022-07-29T17:17:03.184Z,2.27
2022-07-29T17:19:32.210Z,2.70
2022-07-29T17:22:08.954Z,2.60
2022-07-29T17:24:38.244Z,2.53
2022-07-29T17:27:05.880Z,3.30
2022-07-29T17:29:34.763Z,2.70
2022-07-29T17:32:01.478Z,2.37
2022-07-29T17:34:28.279Z,2.20
2022-07-29T17:36:54.825Z,2.60
2022-07-29T17:39:21.683Z,2.33
2022-07-29T17:41:48.486Z,3.50
2022-07-29T17:44:15.714Z,3.83
2022-07-29T17:46:42.301Z,3.47
2022-07-29T17:49:09.022Z,2.70
2022-07-29T17:51:35.922Z,2.13
2022-07-29T17:54:02.549Z,2.80
2022-07-29T17:56:29.098Z,2.53
2022-07-29T17:58:56.055Z,3.13
2022-07-29T18:01:23.631Z,3.00
2022-07-29T18:03:50.237Z,2.63
2022-07-29T18:06:16.825Z,2.53
2022-07-29T18:08:47.351Z,3.27
2022-07-29T18:11:15.141Z,2.37
2022-07-29T18:13:42.014Z,2.47
2022-07-29T18:16:11.772Z,1.93
2022-07-29T18:18:38.343Z,1.90
2022-07-29T18:21:05.648Z,2.40
2022-07-29T18:23:32.595Z,2.77
2022-07-29T18:25:59.397Z,1.80
2022-07-29T18:28:26.120Z,2.47
2022-07-29T18:30:53.161Z,2.23
2022-07-29T18:33:22.333Z,2.30
2022-07-29T18:35:51.270Z,2.03
2022-07-29T18:38:18.060Z,2.63
2022-07-29T18:40:45.648Z,2.10
2022-07-29T18:43:13.411Z,2.73
2022-07-29T18:45:40.644Z,2.00
2022-07-29T18:48:11.909Z,2.30
2022-07-29T18:50:40.359Z,2.10
2022-07-29T18:53:06.990Z,1.63
2022-07-29T18:55:33.581Z,2.03
2022-07-29T18:58:00.221Z,1.90
2022-07-29T19:00:27.231Z,2.13
2022-07-29T19:02:54.078Z,1.60
2022-07-29T19:05:21.119Z,1.97
2022-07-29T19:07:47.799Z,1.97
2022-07-29T19:10:14.845Z,2.33
2022-07-29T19:12:41.461Z,2.10
2022-07-29T19:15:10.257Z,2.40
2022-07-29T19:17:36.957Z,2.30
2022-07-29T19:20:03.819Z,2.50
2022-07-29T19:22:30.984Z,2.30
2022-07-29T19:24:57.689Z,1.80
2022-07-29T19:27:24.290Z,2.00
2022-07-29T19:29:50.834Z,2.23
2022-07-29T19:32:25.017Z,2.33
2022-07-29T19:35:11.326Z,1.90
2022-07-29T19:37:37.907Z,1.70
2022-07-29T19:40:06.541Z,2.20
2022-07-29T19:42:33.322Z,2.23
2022-07-29T19:44:59.943Z,2.10
2022-07-29T19:47:26.513Z,2.30
2022-07-29T19:49:53.109Z,2.13
2022-07-29T19:52:19.849Z,2.50
2022-07-29T19:54:46.381Z,1.90
2022-07-29T19:57:13.030Z,2.50
2022-07-29T19:59:41.253Z,2.33
2022-07-29T20:02:11.159Z,3.27
2022-07-29T20:04:38.566Z,2.00
2022-07-29T20:07:06.931Z,1.83
2022-07-29T20:09:33.862Z,2.27
2022-07-29T20:12:00.613Z,1.87
2022-07-29T20:14:27.575Z,1.80
2022-07-29T20:16:54.330Z,2.10
2022-07-29T20:19:21.271Z,2.17
2022-07-29T20:21:48.092Z,2.10
2022-07-29T20:24:14.707Z,2.03
2022-07-29T20:26:41.242Z,2.90
2022-07-29T20:29:07.812Z,2.53
2022-07-29T20:31:34.805Z,2.43
2022-07-29T20:34:01.909Z,2.30
2022-07-29T20:36:28.665Z,2.37
2022-07-29T20:38:56.033Z,2.07
2022-07-29T20:41:22.908Z,2.70
2022-07-29T20:43:52.689Z,2.50
2022-07-29T20:46:19.411Z,2.73
2022-07-29T20:48:47.048Z,2.40
2022-07-29T20:51:14.416Z,2.20
2022-07-29T20:53:41.693Z,1.80
2022-07-29T20:56:08.967Z,2.00
2022-07-29T20:58:36.352Z,2.50
2022-07-29T21:01:04.354Z,2.63
2022-07-29T21:03:31.114Z,3.13
2022-07-29T21:05:57.941Z,2.30
2022-07-29T21:08:25.231Z,2.20
2022-07-29T21:10:52.806Z,3.00
2022-07-29T21:13:20.484Z,1.73
2022-07-29T21:15:49.543Z,2.27
2022-07-29T21:18:27.379Z,2.23
2022-07-29T21:20:55.086Z,2.70
2022-07-29T21:23:21.755Z,2.53
2022-07-29T21:25:48.395Z,2.57
2022-07-29T21:28:27.300Z,2.53
2022-07-29T21:30:56.331Z,2.43
2022-07-29T21:33:23.833Z,1.87
2022-07-29T21:38:38.099Z,3.47
2022-07-29T21:41:06.107Z,2.30
2022-07-29T21:43:32.816Z,2.57
2022-07-29T21:45:59.989Z,2.53
2022-07-29T21:48:28.937Z,2.10
2022-07-29T21:50:56.501Z,2.53
2022-07-29T21:53:24.969Z,2.70
2022-07-29T21:55:57.005Z,2.87
2022-07-29T21:58:24.510Z,2.27
2022-07-29T22:00:51.666Z,2.00
2022-07-29T22:03:18.368Z,2.70
2022-07-29T22:05:45.792Z,2.10
2022-07-29T22:08:12.894Z,2.97
2022-07-29T22:10:39.496Z,2.80
2022-07-29T22:13:06.157Z,2.70
2022-07-29T22:15:32.913Z,3.13
2022-07-29T22:17:59.550Z,3.57
2022-07-29T22:20:26.898Z,2.80
2022-07-29T22:22:54.280Z,2.90
2022-07-29T22:25:21.016Z,3.10
2022-07-29T22:27:48.002Z,3.27
2022-07-29T22:30:14.906Z,2.97
2022-07-29T22:32:41.495Z,3.17
2022-07-29T22:35:08.669Z,2.93
2022-07-29T22:37:35.339Z,3.20
2022-07-29T22:40:02.234Z,2.70
2022-07-29T22:42:28.835Z,3.03
2022-07-29T22:44:55.423Z,3.07
2022-07-29T22:47:46.256Z,2.70
2022-07-29T22:50:09.221Z,3.20
2022-07-29T22:52:35.742Z,2.77
2022-07-29T22:55:04.071Z,2.90
2022-07-29T22:57:30.602Z,2.83
2022-07-29T22:59:57.133Z,3.00
2022-07-29T23:02:23.685Z,2.43
2022-07-29T23:04:50.574Z,3.10
2022-07-29T23:07:17.547Z,3.33
2022-07-29T23:09:44.142Z,3.30
2022-07-29T23:12:10.685Z,2.80
2022-07-29T23:14:37.206Z,3.00
2022-07-29T23:17:04.793Z,2.73
2022-07-29T23:19:32.581Z,3.50
2022-07-29T23:21:59.158Z,3.07
2022-07-29T23:24:25.673Z,3.43
2022-07-29T23:26:52.234Z,2.47
2022-07-29T23:29:18.792Z,2.70
2022-07-29T23:31:48.297Z,3.23
2022-07-29T23:34:15.060Z,3.23
2022-07-29T23:36:42.236Z,2.80
2022-07-29T23:39:13.124Z,2.33
2022-07-29T23:41:39.744Z,3.00
2022-07-29T23:44:06.323Z,2.67
2022-07-29T23:46:32.882Z,2.90
2022-07-29T23:48:59.680Z,3.20
2022-07-29T23:51:26.298Z,3.37
2022-07-29T23:53:54.180Z,2.70
2022-07-29T23:56:21.112Z,3.20
2022-07-29T23:58:47.675Z,2.67
